createdAt,value
2018-06-25T00:03:20.081Z,85.90
2018-06-25T00:05:49.120Z,86.00
2018-06-25T00:08:18.170Z,87.40
2018-06-25T00:10:47.498Z,90.00
2018-06-25T00:13:16.686Z,90.80
2018-06-25T00:18:14.760Z,91.20
2018-06-25T00:20:43.820Z,91.10
2018-06-25T00:23:12.864Z,88.90
2018-06-25T00:28:11.578Z,88.40
2018-06-25T00:30:40.605Z,87.70
2018-06-25T00:33:10.076Z,87.90
2018-06-25T00:35:39.167Z,87.80
2018-06-25T00:38:08.213Z,87.40
2018-06-25T00:40:37.688Z,88.30
2018-06-25T00:43:06.739Z,88.30
2018-06-25T00:45:35.845Z,87.00
2018-06-25T00:48:05.198Z,87.90
2018-06-25T00:50:34.301Z,87.40
2018-06-25T00:53:03.388Z,88.50
2018-06-25T00:55:32.861Z,88.30
2018-06-25T00:58:02.024Z,88.20
2018-06-25T01:00:31.207Z,88.60
2018-06-25T01:03:00.629Z,88.20
2018-06-25T01:05:29.747Z,89.00
2018-06-25T01:07:58.816Z,88.00
2018-06-25T01:10:28.244Z,87.60
2018-06-25T01:12:57.370Z,87.90
2018-06-25T01:15:26.412Z,87.60
2018-06-25T01:20:24.616Z,86.50
2018-06-25T01:22:53.724Z,87.10
2018-06-25T01:25:23.022Z,87.30
2018-06-25T01:27:52.137Z,87.00
2018-06-25T01:30:21.350Z,87.10
2018-06-25T01:32:50.686Z,87.70
2018-06-25T01:35:19.790Z,88.10
2018-06-25T01:40:17.772Z,88.90
2018-06-25T01:45:15.495Z,89.30
2018-06-25T01:47:44.979Z,89.00
2018-06-25T01:50:14.131Z,90.00
2018-06-25T01:52:43.217Z,90.40
2018-06-25T01:55:12.658Z,89.80
2018-06-25T02:00:10.378Z,89.00
2018-06-25T02:02:39.872Z,89.40
2018-06-25T02:05:09.039Z,89.50
2018-06-25T02:10:08.113Z,90.00
2018-06-25T02:12:37.236Z,90.10
2018-06-25T02:17:36.180Z,90.00
2018-06-25T02:20:05.463Z,89.90
2018-06-25T02:25:03.688Z,90.10
2018-06-25T02:27:33.717Z,90.00
2018-06-25T02:30:02.809Z,89.80
2018-06-25T02:32:32.484Z,90.10
2018-06-25T02:35:01.566Z,90.10
2018-06-25T02:37:30.685Z,90.30
2018-06-25T02:40:00.084Z,90.20
2018-06-25T02:42:29.168Z,90.30
2018-06-25T02:44:58.224Z,90.50
2018-06-25T02:47:27.678Z,90.60
2018-06-25T02:49:56.797Z,90.50
2018-06-25T02:52:25.927Z,90.40
2018-06-25T02:54:55.275Z,90.50
2018-06-25T02:57:24.438Z,90.60
2018-06-25T02:59:53.553Z,90.50
2018-06-25T03:02:22.929Z,90.70
2018-06-25T03:07:20.799Z,90.90
2018-06-25T03:09:50.064Z,91.20
2018-06-25T03:12:19.109Z,91.00
2018-06-25T03:17:17.403Z,91.40
2018-06-25T03:22:15.127Z,91.20
2018-06-25T03:24:44.445Z,91.00
2018-06-25T03:27:13.504Z,91.00
2018-06-25T03:29:42.604Z,90.90
2018-06-25T03:32:11.913Z,91.30
2018-06-25T03:34:41.433Z,91.60
2018-06-25T03:37:10.513Z,91.40
2018-06-25T03:39:40.177Z,91.60
2018-06-25T03:44:38.693Z,91.50
2018-06-25T03:47:08.336Z,91.60
2018-06-25T03:49:37.392Z,91.60
2018-06-25T03:52:06.498Z,91.90
2018-06-25T03:57:04.513Z,91.50
2018-06-25T03:59:33.736Z,92.30
2018-06-25T04:02:02.933Z,92.00
2018-06-25T04:04:31.981Z,91.80
2018-06-25T04:07:01.049Z,91.90
2018-06-25T04:09:30.511Z,91.90
2018-06-25T04:11:59.643Z,92.00
2018-06-25T04:14:28.721Z,91.80
2018-06-25T04:16:58.102Z,92.00
2018-06-25T04:19:27.163Z,92.10
2018-06-25T04:21:56.235Z,92.20
2018-06-25T04:26:54.505Z,92.00
2018-06-25T04:29:23.659Z,92.20
2018-06-25T04:31:53.046Z,92.10
2018-06-25T04:34:22.147Z,92.30
2018-06-25T04:36:51.555Z,92.50
2018-06-25T04:39:20.963Z,92.20
2018-06-25T04:41:50.059Z,92.20
2018-06-25T04:44:19.161Z,92.20
2018-06-25T04:46:48.881Z,92.30
2018-06-25T04:49:18.025Z,92.30
2018-06-25T04:51:47.061Z,92.40
2018-06-25T04:54:16.405Z,92.30
2018-06-25T04:59:14.109Z,92.80
2018-06-25T05:01:43.719Z,92.50
2018-06-25T05:04:12.769Z,92.40
2018-06-25T05:06:41.945Z,92.50
2018-06-25T05:09:11.933Z,92.70
2018-06-25T05:11:41.785Z,92.60
2018-06-25T05:14:10.857Z,92.70
2018-06-25T05:16:40.167Z,92.50
2018-06-25T05:19:10.069Z,92.50
2018-06-25T05:21:39.272Z,92.50
2018-06-25T05:24:08.591Z,92.40
2018-06-25T05:26:37.729Z,92.20
2018-06-25T05:29:06.924Z,92.70
2018-06-25T05:31:36.181Z,92.40
2018-06-25T05:34:05.413Z,92.30
2018-06-25T05:36:34.509Z,92.40
2018-06-25T05:39:06.371Z,92.70
2018-06-25T05:41:35.523Z,92.50
2018-06-25T05:44:04.791Z,92.30
2018-06-25T05:46:33.944Z,91.70
2018-06-25T05:49:03.045Z,92.20
2018-06-25T05:51:33.027Z,92.00
2018-06-25T05:54:02.094Z,92.20
2018-06-25T05:56:31.281Z,92.30
2018-06-25T05:59:00.623Z,92.30
2018-06-25T06:01:29.959Z,92.10
2018-06-25T06:03:59.042Z,92.00
2018-06-25T06:06:28.557Z,92.10
2018-06-25T06:08:57.638Z,92.20
2018-06-25T06:11:26.688Z,92.60
2018-06-25T06:13:56.674Z,92.20
2018-06-25T06:16:26.090Z,92.30
2018-06-25T06:18:55.203Z,91.80
2018-06-25T06:21:24.456Z,91.60
2018-06-25T06:23:54.328Z,91.80
2018-06-25T06:26:23.909Z,92.20
2018-06-25T06:28:53.134Z,92.30
2018-06-25T06:31:22.264Z,92.20
2018-06-25T06:33:51.349Z,92.40
2018-06-25T06:36:20.851Z,92.40
2018-06-25T06:38:49.941Z,92.50
2018-06-25T06:41:19.539Z,92.10
2018-06-25T06:43:49.590Z,92.50
2018-06-25T06:46:18.649Z,91.90
2018-06-25T06:48:47.793Z,91.90
2018-06-25T06:51:17.100Z,91.90
2018-06-25T06:53:46.184Z,91.90
2018-06-25T06:56:15.291Z,92.90
2018-06-25T06:58:44.492Z,92.60
2018-06-25T07:03:43.346Z,91.50
2018-06-25T07:06:12.827Z,91.80
2018-06-25T07:08:42.260Z,91.00
2018-06-25T07:11:11.432Z,91.90
2018-06-25T07:13:41.024Z,91.60
2018-06-25T07:16:10.136Z,91.70
2018-06-25T07:18:39.211Z,91.50
2018-06-25T07:21:08.688Z,90.90
2018-06-25T07:23:37.857Z,91.00
2018-06-25T07:26:06.920Z,90.90
2018-06-25T07:28:36.303Z,91.30
2018-06-25T07:31:05.401Z,91.60
2018-06-25T07:33:34.926Z,91.30
2018-06-25T07:36:04.308Z,91.50
2018-06-25T07:38:33.428Z,91.10
2018-06-25T07:41:02.494Z,91.20
2018-06-25T07:43:32.032Z,90.80
2018-06-25T07:46:01.126Z,91.90
2018-06-25T07:48:30.383Z,91.10
2018-06-25T07:50:59.760Z,91.20
2018-06-25T07:53:28.967Z,90.90
2018-06-25T07:55:58.018Z,91.10
2018-06-25T07:58:27.357Z,91.50
2018-06-25T08:00:56.448Z,90.70
2018-06-25T08:03:25.500Z,90.50
2018-06-25T08:05:54.918Z,90.30
2018-06-25T08:08:24.352Z,90.20
2018-06-25T08:10:53.498Z,89.60
2018-06-25T08:13:22.862Z,89.40
2018-06-25T08:18:20.598Z,90.00
2018-06-25T08:20:50.104Z,89.60
2018-06-25T08:23:19.184Z,91.20
2018-06-25T08:25:48.398Z,90.10
2018-06-25T08:28:17.714Z,90.40
2018-06-25T08:30:46.768Z,90.70
2018-06-25T08:33:15.920Z,90.20
2018-06-25T08:35:45.260Z,89.90
2018-06-25T08:38:14.422Z,90.90
2018-06-25T08:40:43.621Z,90.90
2018-06-25T08:43:12.941Z,89.50
2018-06-25T08:45:42.249Z,90.00
2018-06-25T08:48:11.338Z,90.30
2018-06-25T08:50:40.837Z,89.70
2018-06-25T08:53:09.942Z,89.60
2018-06-25T08:55:39.025Z,89.30
2018-06-25T08:58:08.369Z,89.10
2018-06-25T09:00:37.432Z,88.40
2018-06-25T09:03:06.846Z,88.30
2018-06-25T09:05:36.368Z,88.20
2018-06-25T09:08:05.486Z,90.00
2018-06-25T09:10:34.576Z,89.30
2018-06-25T09:13:04.055Z,88.30
2018-06-25T09:15:33.172Z,87.20
2018-06-25T09:18:02.234Z,87.10
2018-06-25T09:20:31.810Z,88.10
2018-06-25T09:23:00.872Z,90.40
2018-06-25T09:25:30.015Z,89.40
2018-06-25T09:28:05.329Z,88.90
2018-06-25T09:30:34.516Z,89.90
2018-06-25T09:33:04.140Z,87.80
2018-06-25T09:35:33.530Z,89.60
2018-06-25T09:38:02.627Z,89.90
2018-06-25T09:40:31.944Z,88.00
2018-06-25T09:43:01.069Z,89.30
2018-06-25T09:45:30.183Z,90.40
2018-06-25T09:47:59.813Z,89.30
2018-06-25T09:50:28.895Z,89.10
2018-06-25T09:52:58.032Z,88.00
2018-06-25T09:55:27.620Z,88.40
2018-06-25T09:57:56.705Z,86.00
2018-06-25T10:00:31.049Z,86.50
2018-06-25T10:05:29.410Z,83.30
2018-06-25T10:07:58.487Z,85.60
2018-06-25T10:10:27.868Z,82.90
2018-06-25T10:12:56.932Z,83.80
2018-06-25T10:15:25.997Z,83.00
2018-06-25T10:17:55.544Z,83.40
2018-06-25T10:22:53.336Z,86.00
2018-06-25T10:25:23.377Z,82.90
2018-06-25T10:27:52.462Z,82.90
2018-06-25T10:30:21.985Z,83.00
2018-06-25T10:32:51.295Z,86.30
2018-06-25T10:35:20.453Z,85.30
2018-06-25T10:37:49.842Z,81.60
2018-06-25T10:40:18.903Z,80.80
2018-06-25T10:42:48.101Z,81.50
2018-06-25T10:45:17.450Z,81.30
2018-06-25T10:47:46.583Z,79.60
2018-06-25T10:50:16.071Z,80.90
2018-06-25T10:52:45.574Z,80.30
2018-06-25T10:55:15.384Z,79.00
2018-06-25T10:57:44.465Z,80.00
2018-06-25T11:00:14.123Z,79.30
2018-06-25T11:05:11.722Z,81.90
2018-06-25T11:07:41.384Z,80.70
2018-06-25T11:10:10.494Z,81.00
2018-06-25T11:12:39.750Z,80.90
2018-06-25T11:15:09.103Z,79.70
2018-06-25T11:17:38.175Z,80.70
2018-06-25T11:20:07.484Z,79.60
2018-06-25T11:22:36.699Z,79.10
2018-06-25T11:25:05.777Z,79.20
2018-06-25T11:27:34.931Z,78.30
2018-06-25T11:30:04.692Z,80.60
2018-06-25T11:32:33.741Z,78.30
2018-06-25T11:35:02.837Z,78.70
2018-06-25T11:37:32.230Z,79.40
2018-06-25T11:40:01.377Z,78.40
2018-06-25T11:42:30.528Z,78.60
2018-06-25T11:45:00.696Z,77.30
2018-06-25T11:47:29.778Z,77.40
2018-06-25T11:49:59.222Z,77.80
2018-06-25T11:52:28.866Z,77.40
2018-06-25T11:54:58.005Z,76.40
2018-06-25T11:57:27.097Z,78.40
2018-06-25T11:59:56.620Z,77.90
2018-06-25T12:02:25.772Z,79.60
2018-06-25T12:04:54.929Z,78.40
2018-06-25T12:07:24.116Z,77.20
2018-06-25T12:09:53.192Z,78.20
2018-06-25T12:12:22.274Z,77.80
2018-06-25T12:14:51.452Z,77.30
2018-06-25T12:17:20.647Z,77.10
2018-06-25T12:19:49.678Z,77.80
2018-06-25T12:22:18.875Z,76.70
2018-06-25T12:24:48.100Z,75.60
2018-06-25T12:27:17.225Z,75.40
2018-06-25T12:29:46.514Z,74.30
2018-06-25T12:32:15.724Z,72.80
2018-06-25T12:34:44.905Z,73.10
2018-06-25T12:37:14.501Z,72.70
2018-06-25T12:39:43.582Z,75.70
2018-06-25T12:42:12.691Z,74.50
2018-06-25T12:44:42.176Z,72.60
2018-06-25T12:47:11.308Z,72.80
2018-06-25T12:49:40.384Z,73.20
2018-06-25T12:52:10.009Z,75.20
2018-06-25T12:54:39.431Z,74.50
2018-06-25T12:57:08.511Z,72.20
2018-06-25T12:59:37.852Z,71.70
2018-06-25T13:02:07.013Z,75.30
2018-06-25T13:04:36.100Z,75.40
2018-06-25T13:07:05.847Z,72.30
2018-06-25T13:09:34.971Z,71.20
2018-06-25T13:12:04.131Z,72.40
2018-06-25T13:14:33.651Z,72.80
2018-06-25T13:17:02.701Z,72.10
2018-06-25T13:19:31.769Z,71.50
2018-06-25T13:22:08.112Z,72.00
2018-06-25T13:24:37.198Z,72.80
2018-06-25T13:27:06.516Z,74.00
2018-06-25T13:29:35.567Z,72.50
2018-06-25T13:32:05.104Z,73.00
2018-06-25T13:34:34.704Z,77.40
2018-06-25T13:37:03.893Z,77.10
2018-06-25T13:39:33.141Z,76.60
2018-06-25T13:44:31.266Z,72.80
2018-06-25T13:47:00.336Z,71.50
2018-06-25T13:49:29.467Z,73.00
2018-06-25T13:51:58.663Z,73.00
2018-06-25T13:54:27.777Z,71.60
2018-06-25T13:56:57.450Z,71.30
2018-06-25T13:59:26.477Z,72.00
2018-06-25T14:01:55.558Z,69.80
2018-06-25T14:04:24.932Z,67.70
2018-06-25T14:06:53.983Z,70.10
2018-06-25T14:09:23.097Z,68.00
2018-06-25T14:11:52.525Z,64.90
2018-06-25T14:14:21.590Z,66.20
2018-06-25T14:16:50.747Z,61.20
2018-06-25T14:19:20.016Z,64.80
2018-06-25T14:21:49.187Z,64.30
2018-06-25T14:24:23.556Z,65.50
2018-06-25T14:26:57.664Z,64.20
2018-06-25T14:29:32.213Z,63.60
2018-06-25T14:32:07.056Z,64.00
2018-06-25T14:34:36.159Z,62.00
2018-06-25T14:39:34.165Z,65.10
2018-06-25T14:42:03.280Z,65.00
2018-06-25T14:44:32.647Z,63.90
2018-06-25T14:47:01.792Z,62.10
2018-06-25T14:49:30.867Z,61.30
2018-06-25T14:52:00.311Z,59.90
2018-06-25T14:54:29.403Z,59.90
2018-06-25T14:56:58.767Z,58.30
2018-06-25T14:59:28.128Z,59.10
2018-06-25T15:01:57.430Z,59.10
2018-06-25T15:04:26.481Z,59.10
2018-06-25T15:06:55.610Z,56.30
2018-06-25T15:09:25.022Z,59.00
2018-06-25T15:11:54.106Z,57.70
2018-06-25T15:14:23.252Z,58.30
2018-06-25T15:16:52.722Z,56.90
2018-06-25T15:19:21.832Z,56.60
2018-06-25T15:21:50.948Z,57.60
2018-06-25T15:24:20.073Z,56.90
2018-06-25T15:26:49.145Z,55.60
2018-06-25T15:29:18.291Z,54.70
2018-06-25T15:31:47.858Z,55.80
2018-06-25T15:34:17.052Z,56.10
2018-06-25T15:36:46.229Z,56.40
2018-06-25T15:39:15.394Z,54.40
2018-06-25T15:41:44.438Z,55.60
2018-06-25T15:44:13.466Z,53.60
2018-06-25T15:46:42.743Z,54.20
2018-06-25T15:49:11.796Z,55.60
2018-06-25T15:54:09.839Z,54.30
2018-06-25T15:56:38.992Z,53.90
2018-06-25T15:59:08.513Z,55.40
2018-06-25T16:01:37.877Z,55.20
2018-06-25T16:04:07.008Z,52.90
2018-06-25T16:06:36.173Z,53.10
2018-06-25T16:09:06.794Z,52.30
2018-06-25T16:14:05.040Z,50.60
2018-06-25T16:16:34.211Z,50.60
2018-06-25T16:19:03.314Z,51.90
2018-06-25T16:21:32.467Z,52.70
2018-06-25T16:24:01.641Z,52.40
2018-06-25T16:26:30.714Z,51.70
2018-06-25T16:28:59.794Z,50.40
2018-06-25T16:31:29.159Z,51.10
2018-06-25T16:33:58.309Z,50.50
2018-06-25T16:36:27.505Z,51.80
2018-06-25T16:38:56.796Z,53.00
2018-06-25T16:41:26.620Z,53.70
2018-06-25T16:43:55.734Z,53.30
2018-06-25T16:46:25.069Z,54.70
2018-06-25T16:48:54.669Z,54.10
2018-06-25T16:53:52.625Z,53.80
2018-06-25T16:56:21.687Z,52.30
2018-06-25T16:58:50.848Z,52.20
2018-06-25T17:01:20.377Z,52.20
2018-06-25T17:03:49.482Z,52.80
2018-06-25T17:06:18.541Z,52.10
2018-06-25T17:11:16.617Z,53.30
2018-06-25T17:13:46.109Z,51.10
2018-06-25T17:16:16.023Z,52.10
2018-06-25T17:18:45.248Z,52.40
2018-06-25T17:21:14.298Z,53.20
2018-06-25T17:23:43.765Z,52.80
2018-06-25T17:26:12.930Z,52.60
2018-06-25T17:31:10.872Z,53.50
2018-06-25T17:33:39.914Z,51.70
2018-06-25T17:38:37.938Z,52.20
2018-06-25T17:41:06.970Z,53.00
2018-06-25T17:43:36.026Z,53.60
2018-06-25T17:46:05.506Z,53.90
2018-06-25T17:51:03.536Z,53.70
2018-06-25T17:53:32.790Z,54.20
2018-06-25T17:56:01.893Z,55.20
2018-06-25T17:58:31.089Z,55.90
2018-06-25T18:01:00.753Z,55.40
2018-06-25T18:03:30.105Z,55.40
2018-06-25T18:05:59.149Z,55.20
2018-06-25T18:08:28.550Z,54.20
2018-06-25T18:10:57.606Z,54.70
2018-06-25T18:13:26.788Z,54.60
2018-06-25T18:15:56.070Z,53.40
2018-06-25T18:18:25.148Z,51.30
2018-06-25T18:20:54.217Z,51.10
2018-06-25T18:23:23.371Z,50.40
2018-06-25T18:25:52.514Z,51.30
2018-06-25T18:28:21.938Z,52.70
2018-06-25T18:33:20.135Z,54.60
2018-06-25T18:35:49.267Z,57.80
2018-06-25T18:38:21.173Z,59.50
2018-06-25T18:40:50.345Z,59.80
2018-06-25T18:43:19.416Z,61.60
2018-06-25T18:45:48.534Z,63.60
2018-06-25T18:48:18.134Z,64.80
2018-06-25T18:50:47.287Z,65.90
2018-06-25T18:55:45.510Z,64.80
2018-06-25T18:58:14.676Z,66.70
2018-06-25T19:00:43.741Z,67.80
2018-06-25T19:05:41.655Z,68.70
2018-06-25T19:08:10.977Z,68.60
2018-06-25T19:10:40.370Z,69.30
2018-06-25T19:13:09.414Z,69.50
2018-06-25T19:15:38.607Z,70.30
2018-06-25T19:18:07.798Z,70.50
2018-06-25T19:20:36.985Z,70.60
2018-06-25T19:23:06.073Z,71.00
2018-06-25T19:25:35.220Z,71.20
2018-06-25T19:28:04.416Z,72.30
2018-06-25T19:30:33.581Z,71.80
2018-06-25T19:33:02.751Z,72.70
2018-06-25T19:35:31.848Z,73.90
2018-06-25T19:38:00.938Z,74.40
2018-06-25T19:40:30.145Z,74.40
2018-06-25T19:42:59.180Z,75.70
2018-06-25T19:45:28.280Z,74.40
2018-06-25T19:47:57.730Z,74.10
2018-06-25T19:50:27.867Z,75.00
2018-06-25T19:52:56.978Z,72.80
2018-06-25T19:55:26.141Z,73.10
2018-06-25T19:57:55.275Z,73.90
2018-06-25T20:00:24.371Z,75.00
2018-06-25T20:02:53.543Z,75.60
2018-06-25T20:05:23.578Z,75.20
2018-06-25T20:07:52.711Z,76.10
2018-06-25T20:10:22.127Z,76.80
2018-06-25T20:12:51.229Z,77.10
2018-06-25T20:15:20.415Z,76.00
2018-06-25T20:17:49.783Z,76.30
2018-06-25T20:20:18.945Z,78.10
2018-06-25T20:22:48.657Z,78.40
2018-06-25T20:25:17.942Z,78.10
2018-06-25T20:27:47.043Z,78.60
2018-06-25T20:30:16.144Z,78.40
2018-06-25T20:32:45.310Z,79.20
2018-06-25T20:35:14.424Z,79.60
2018-06-25T20:37:43.508Z,79.90
2018-06-25T20:42:41.606Z,79.90
2018-06-25T20:45:10.770Z,80.60
2018-06-25T20:47:39.898Z,80.60
2018-06-25T20:50:08.985Z,80.60
2018-06-25T20:52:38.180Z,80.90
2018-06-25T20:55:07.400Z,80.60
2018-06-25T20:57:36.485Z,80.60
2018-06-25T21:00:05.943Z,80.60
2018-06-25T21:02:35.263Z,79.00
2018-06-25T21:07:33.386Z,79.90
2018-06-25T21:10:02.810Z,80.30
2018-06-25T21:12:31.878Z,79.40
2018-06-25T21:15:01.171Z,80.10
2018-06-25T21:17:30.418Z,80.40
2018-06-25T21:19:59.576Z,80.90
2018-06-25T21:22:28.812Z,81.40
2018-06-25T21:24:58.296Z,82.00
2018-06-25T21:27:27.521Z,81.80
2018-06-25T21:29:56.627Z,81.80
2018-06-25T21:32:25.886Z,82.10
2018-06-25T21:34:54.990Z,82.40
2018-06-25T21:37:24.118Z,82.40
2018-06-25T21:39:53.555Z,82.30
2018-06-25T21:42:22.648Z,82.50
2018-06-25T21:44:51.752Z,83.40
2018-06-25T21:47:21.392Z,83.60
2018-06-25T21:49:50.478Z,83.70
2018-06-25T21:52:19.654Z,83.40
2018-06-25T21:54:49.573Z,83.40
2018-06-25T21:57:18.790Z,81.30
2018-06-25T21:59:47.847Z,80.40
2018-06-25T22:02:17.240Z,79.60
2018-06-25T22:07:15.090Z,78.60
2018-06-25T22:09:44.281Z,79.30
2018-06-25T22:12:13.404Z,79.50
2018-06-25T22:14:42.547Z,80.00
2018-06-25T22:17:12.165Z,79.50
2018-06-25T22:19:41.765Z,78.90
2018-06-25T22:22:10.964Z,78.60
2018-06-25T22:24:40.051Z,78.10
2018-06-25T22:27:09.364Z,78.40
2018-06-25T22:29:38.389Z,78.80
2018-06-25T22:32:07.554Z,79.90
2018-06-25T22:34:36.911Z,80.60
2018-06-25T22:39:34.919Z,80.20
2018-06-25T22:42:04.516Z,80.30
2018-06-25T22:44:34.185Z,79.70
2018-06-25T22:47:03.230Z,79.60
2018-06-25T22:49:32.735Z,79.20
2018-06-25T22:52:01.816Z,79.10
2018-06-25T22:54:30.912Z,78.60
2018-06-25T22:57:00.454Z,78.90
2018-06-25T22:59:29.573Z,78.10
2018-06-25T23:01:58.605Z,78.90
2018-06-25T23:06:56.668Z,79.60
2018-06-25T23:09:25.910Z,79.80
2018-06-25T23:11:55.502Z,80.20
2018-06-25T23:16:53.205Z,80.30
2018-06-25T23:19:22.784Z,80.80
2018-06-25T23:21:51.869Z,82.00
2018-06-25T23:24:20.974Z,80.90
2018-06-25T23:26:50.334Z,82.10
2018-06-25T23:29:19.380Z,81.80
2018-06-25T23:31:48.486Z,83.20
2018-06-25T23:34:17.962Z,84.00
2018-06-25T23:36:47.023Z,84.30
2018-06-25T23:39:16.139Z,84.00
2018-06-25T23:41:45.628Z,84.80
2018-06-25T23:44:14.688Z,85.20
2018-06-25T23:46:43.748Z,83.00
2018-06-25T23:49:13.078Z,85.10
2018-06-25T23:51:42.290Z,85.20
2018-06-25T23:54:11.377Z,85.60
2018-06-25T23:56:40.727Z,86.10
